Time,TemperatureF,DewpointF,PressureIn,WindDirection,WindDirectionDegrees,WindSpeedMPH,WindSpeedGustMPH,Humidity,HourlyPrecipIn,Conditions,Clouds,dailyrainin,SoftwareType,DateUTC
2013-03-07 00:02:00,30.1,21.2,29.90,SSW,209,16.0,16.0,69,0.00,,SKC,0.00,VWS V12.07,2013-03-07 08:02:00,
2013-03-07 00:12:00,29.9,21.0,29.91,SSW,203,5.0,16.0,69,0.00,,SKC,0.00,VWS V12.07,2013-03-07 08:12:00,
2013-03-07 00:22:00,29.5,20.9,29.92,SSW,201,6.0,16.0,70,0.00,,SKC,0.00,VWS V12.07,2013-03-07 08:22:00,
2013-03-07 00:32:00,29.2,20.6,29.92,SSW,195,5.0,11.0,70,0.00,,SKC,0.00,VWS V12.07,2013-03-07 08:32:00,
2013-03-07 00:42:00,29.1,20.9,29.91,SSW,194,7.0,11.0,71,0.00,,SKC,0.00,VWS V12.07,2013-03-07 08:42:00,
2013-03-07 00:52:00,28.8,20.9,29.92,SSW,194,6.0,11.0,72,0.00,,SKC,0.00,VWS V12.07,2013-03-07 08:52:00,
2013-03-07 01:02:00,28.6,20.7,29.92,SSW,199,5.0,10.0,72,0.00,,SKC,0.00,VWS V12.07,2013-03-07 09:02:00,
2013-03-07 01:12:00,28.5,20.6,29.93,SSW,199,6.0,11.0,72,0.00,,SKC,0.00,VWS V12.07,2013-03-07 09:12:00,
2013-03-07 01:22:00,28.5,20.6,29.93,SSW,206,6.0,13.0,72,0.00,,SKC,0.00,VWS V12.07,2013-03-07 09:22:00,
2013-03-07 01:32:00,28.5,20.3,29.92,SSW,209,9.0,9.0,71,0.00,,SKC,0.00,VWS V12.07,2013-03-07 09:32:00,
2013-03-07 01:42:00,28.3,20.1,29.92,SSW,205,8.0,12.0,71,0.00,,SKC,0.00,VWS V12.07,2013-03-07 09:42:00,
2013-03-07 01:52:00,28.2,20.4,29.92,SSW,209,6.0,12.0,72,0.00,,SKC,0.00,VWS V12.07,2013-03-07 09:52:00,
2013-03-07 02:02:00,27.9,20.1,29.92,SSW,207,8.0,10.0,72,0.00,,SKC,0.00,VWS V12.07,2013-03-07 10:02:00,
2013-03-07 02:12:00,27.9,20.1,29.92,SSW,211,12.0,14.0,72,0.00,,SKC,0.00,VWS V12.07,2013-03-07 10:12:00,
2013-03-07 02:22:00,27.9,20.4,29.93,SSW,209,7.0,14.0,73,0.00,,SKC,0.00,VWS V12.07,2013-03-07 10:22:00,
2013-03-07 02:32:00,27.8,20.3,29.93,SSW,209,8.0,11.0,73,0.00,,SKC,0.00,VWS V12.07,2013-03-07 10:32:00,
2013-03-07 02:42:00,27.7,20.2,29.91,SW,221,10.0,14.0,73,0.00,,SKC,0.00,VWS V12.07,2013-03-07 10:42:00,
2013-03-07 02:52:00,28.0,20.2,29.92,SW,220,9.0,14.0,72,0.00,,SKC,0.00,VWS V12.07,2013-03-07 10:52:00,
2013-03-07 03:02:00,27.9,20.1,29.92,SW,222,10.0,14.0,72,0.00,,SKC,0.00,VWS V12.07,2013-03-07 11:02:00,
2013-03-07 03:12:00,28.0,19.8,29.92,SW,232,9.0,15.0,71,0.00,,SKC,0.00,VWS V12.07,2013-03-07 11:12:00,
2013-03-07 03:22:00,28.0,19.8,29.92,SW,234,7.0,15.0,71,0.00,,SKC,0.00,VWS V12.07,2013-03-07 11:22:00,
2013-03-07 03:42:00,28.3,20.1,29.93,SW,230,5.0,12.0,71,0.00,,SKC,0.00,VWS V12.07,2013-03-07 11:42:00,
2013-03-07 03:52:00,28.1,19.6,29.92,SW,229,5.0,12.0,70,0.00,,SKC,0.00,VWS V12.07,2013-03-07 11:52:00,
2013-03-07 04:02:00,27.9,19.4,29.92,SW,227,9.0,11.0,70,0.00,,SKC,0.00,VWS V12.07,2013-03-07 12:02:00,
2013-03-07 04:12:00,27.9,19.7,29.92,SW,225,5.0,12.0,71,0.00,,SKC,0.00,VWS V12.07,2013-03-07 12:12:00,
2013-03-07 04:22:00,27.8,19.6,29.92,SW,226,9.0,12.0,71,0.00,,SKC,0.00,VWS V12.07,2013-03-07 12:22:00,
2013-03-07 04:32:00,27.6,19.4,29.92,SW,225,6.0,10.0,71,0.00,,SKC,0.00,VWS V12.07,2013-03-07 12:32:00,
2013-03-07 04:42:00,27.1,19.0,29.94,SW,223,5.0,11.0,71,0.00,,SKC,0.00,VWS V12.07,2013-03-07 12:42:00,
2013-03-07 04:52:00,26.9,19.4,29.94,SW,223,5.0,11.0,73,0.00,,SKC,0.00,VWS V12.07,2013-03-07 12:52:00,
2013-03-07 05:02:00,26.6,18.8,29.94,SW,223,6.0,12.0,72,0.00,,SKC,0.00,VWS V12.07,2013-03-07 13:02:00,
2013-03-07 05:12:00,26.6,19.1,29.93,SW,223,4.0,12.0,73,0.00,,SKC,0.00,VWS V12.07,2013-03-07 13:12:00,
2013-03-07 05:22:00,26.9,19.4,29.93,SW,222,10.0,12.0,73,0.00,,SKC,0.00,VWS V12.07,2013-03-07 13:22:00,
2013-03-07 05:32:00,27.2,19.7,29.93,SW,223,5.0,11.0,73,0.00,,SKC,0.00,VWS V12.07,2013-03-07 13:32:00,
2013-03-07 05:42:00,26.4,18.9,29.95,SW,223,4.0,11.0,73,0.00,,SKC,0.00,VWS V12.07,2013-03-07 13:42:00,
2013-03-07 05:52:00,25.7,18.6,29.94,SW,223,2.0,11.0,74,0.00,,SKC,0.00,VWS V12.07,2013-03-07 13:52:00,
2013-03-07 06:02:00,25.7,18.9,29.94,SW,223,3.0,5.0,75,0.00,,SKC,0.00,VWS V12.07,2013-03-07 14:02:00,
2013-03-07 06:12:00,25.3,18.2,29.94,SW,223,0.0,5.0,74,0.00,,SKC,0.00,VWS V12.07,2013-03-07 14:12:00,
2013-03-07 06:22:00,25.2,18.7,29.94,SW,223,5.0,5.0,76,0.00,,SKC,0.00,VWS V12.07,2013-03-07 14:22:00,
2013-03-07 06:32:00,25.3,18.8,29.95,SW,223,5.0,7.0,76,0.00,,SKC,0.00,VWS V12.07,2013-03-07 14:32:00,
2013-03-07 06:42:00,25.4,18.9,29.96,SW,223,0.0,7.0,76,0.00,,SKC,0.00,VWS V12.07,2013-03-07 14:42:00,
2013-03-07 06:52:00,25.4,18.9,29.95,SW,223,4.0,7.0,76,0.00,,SKC,0.00,VWS V12.07,2013-03-07 14:52:00,
2013-03-07 07:02:00,25.1,18.3,29.94,SW,223,2.0,6.0,75,0.00,,SKC,0.00,VWS V12.07,2013-03-07 15:02:00,
2013-03-07 07:12:00,25.2,18.7,29.95,SW,223,2.0,7.0,76,0.00,,SKC,0.00,VWS V12.07,2013-03-07 15:12:00,
2013-03-07 07:22:00,25.2,18.7,29.96,SW,223,4.0,7.0,76,0.00,,SKC,0.00,VWS V12.07,2013-03-07 15:22:00,
2013-03-07 07:32:00,25.9,19.7,29.96,SW,223,0.0,7.0,77,0.00,,SKC,0.00,VWS V12.07,2013-03-07 15:32:00,
2013-03-07 07:42:00,26.7,20.2,29.96,SSW,212,7.0,9.0,76,0.00,,SKC,0.00,VWS V12.07,2013-03-07 15:42:00,
2013-03-07 07:52:00,27.2,20.3,29.97,SSW,210,4.0,9.0,75,0.00,,SKC,0.00,VWS V12.07,2013-03-07 15:52:00,
2013-03-07 08:02:00,28.2,21.0,29.96,SSW,210,5.0,7.0,74,0.00,,SKC,0.00,VWS V12.07,2013-03-07 16:02:00,
2013-03-07 08:12:00,29.1,20.9,29.96,SSW,210,5.0,8.0,71,0.00,,SKC,0.00,VWS V12.07,2013-03-07 16:12:00,
2013-03-07 08:22:00,29.8,21.6,29.98,SSW,208,7.0,8.0,71,0.00,,SKC,0.00,VWS V12.07,2013-03-07 16:22:00,
2013-03-07 08:32:00,30.1,21.5,29.96,SSW,205,5.0,7.0,70,0.00,,SKC,0.00,VWS V12.07,2013-03-07 16:32:00,
2013-03-07 08:42:00,30.8,21.5,29.97,South,191,5.0,11.0,68,0.00,,SKC,0.00,VWS V12.07,2013-03-07 16:42:00,
2013-03-07 08:52:00,31.6,22.3,29.96,SSW,193,5.0,11.0,68,0.00,,SKC,0.00,VWS V12.07,2013-03-07 16:52:00,
2013-03-07 09:02:00,32.7,22.6,29.96,South,191,7.0,10.0,66,0.00,,SKC,0.00,VWS V12.07,2013-03-07 17:02:00,
2013-03-07 09:12:00,33.9,23.4,29.96,South,183,5.0,10.0,65,0.00,,SKC,0.00,VWS V12.07,2013-03-07 17:12:00,
2013-03-07 09:22:00,34.4,23.5,29.98,South,184,6.0,10.0,64,0.00,,SKC,0.00,VWS V12.07,2013-03-07 17:22:00,
2013-03-07 09:32:00,34.1,22.8,29.97,SSW,206,7.0,10.0,63,0.00,,SKC,0.00,VWS V12.07,2013-03-07 17:32:00,
2013-03-07 09:42:00,34.3,22.6,29.96,SW,218,6.0,10.0,62,0.00,,SKC,0.00,VWS V12.07,2013-03-07 17:42:00,
2013-03-07 09:53:00,35.0,22.9,29.97,SSW,204,7.0,12.0,61,0.00,,SKC,0.00,VWS V12.07,2013-03-07 17:53:00,
2013-03-07 10:03:00,35.5,22.6,29.97,South,182,3.0,8.0,59,0.00,,SKC,0.00,VWS V12.07,2013-03-07 18:03:00,
2013-03-07 10:14:00,36.6,23.2,29.96,South,178,5.0,8.0,58,0.00,,SKC,0.00,VWS V12.07,2013-03-07 18:14:00,
2013-03-07 10:23:00,37.0,22.8,29.96,South,175,0.0,10.0,56,0.00,,SKC,0.00,VWS V12.07,2013-03-07 18:23:00,
2013-03-07 10:33:00,37.8,22.7,29.96,SSE,148,2.0,5.0,54,0.00,,SKC,0.00,VWS V12.07,2013-03-07 18:33:00,
2013-03-07 10:55:00,38.2,21.2,29.96,SSW,196,2.0,9.0,50,0.00,,SKC,0.00,VWS V12.07,2013-03-07 18:55:00,
2013-03-07 11:02:00,37.8,20.8,29.96,East,95,10.0,13.0,50,0.00,,SKC,0.00,VWS V12.07,2013-03-07 19:02:00,
2013-03-07 11:12:00,37.3,19.9,29.95,ENE,58,3.0,13.0,49,0.00,,SKC,0.00,VWS V12.07,2013-03-07 19:12:00,
2013-03-07 11:22:00,37.2,20.3,29.95,ESE,114,11.0,13.0,50,0.00,,SKC,0.00,VWS V12.07,2013-03-07 19:22:00,
2013-03-07 11:32:00,37.3,20.4,29.95,ESE,110,4.0,5.0,50,0.00,,SKC,0.00,VWS V12.07,2013-03-07 19:32:00,
2013-03-07 11:42:00,37.4,22.3,29.95,South,182,4.0,14.0,54,0.00,,SKC,0.00,VWS V12.07,2013-03-07 19:42:00,
2013-03-07 11:52:00,37.7,22.1,29.96,South,182,1.0,14.0,53,0.00,,SKC,0.00,VWS V12.07,2013-03-07 19:52:00,
2013-03-07 12:02:00,37.7,21.7,29.95,WSW,243,9.0,11.0,52,0.00,,SKC,0.00,VWS V12.07,2013-03-07 20:02:00,
2013-03-07 12:12:00,35.3,23.2,29.96,WSW,252,4.0,16.0,61,0.00,,SKC,0.00,VWS V12.07,2013-03-07 20:12:00,
2013-03-07 12:22:00,34.7,24.1,29.95,West,262,2.0,16.0,65,0.00,,SKC,0.00,VWS V12.07,2013-03-07 20:22:00,
2013-03-07 12:32:00,34.6,24.8,29.95,WNW,291,7.0,9.0,67,0.00,,SKC,0.00,VWS V12.07,2013-03-07 20:32:00,
2013-03-07 12:42:00,34.2,25.5,29.94,NW,321,5.0,11.0,70,0.00,,SKC,0.00,VWS V12.07,2013-03-07 20:42:00,
2013-03-07 12:52:00,34.8,25.7,29.95,NW,315,2.0,11.0,69,0.00,,SKC,0.00,VWS V12.07,2013-03-07 20:52:00,
2013-03-07 13:02:00,35.3,25.1,29.93,NW,315,1.0,5.0,66,0.00,,SKC,0.00,VWS V12.07,2013-03-07 21:02:00,
2013-03-07 13:12:00,36.0,25.4,29.93,NW,315,3.0,5.0,65,0.00,,SKC,0.00,VWS V12.07,2013-03-07 21:12:00,
2013-03-07 13:22:00,36.9,25.5,29.92,NW,315,0.0,5.0,63,0.00,,SKC,0.01,VWS V12.07,2013-03-07 21:22:00,
2013-03-07 13:32:00,37.6,24.6,29.93,NW,315,2.0,6.0,59,0.01,,SKC,0.01,VWS V12.07,2013-03-07 21:32:00,
2013-03-07 13:42:00,37.7,24.7,29.93,SSE,147,0.0,12.0,59,0.01,,SKC,0.01,VWS V12.07,2013-03-07 21:42:00,
2013-03-07 13:52:00,38.8,25.7,29.92,SE,142,1.0,12.0,59,0.01,,SKC,0.01,VWS V12.07,2013-03-07 21:52:00,
2013-03-07 14:02:00,40.3,25.9,29.93,South,172,5.0,6.0,56,0.01,,SKC,0.01,VWS V12.07,2013-03-07 22:02:00,
2013-03-07 14:12:00,39.8,23.6,29.92,ENE,66,8.0,11.0,52,0.01,,SKC,0.01,VWS V12.07,2013-03-07 22:12:00,
2013-03-07 14:22:00,39.9,23.3,29.91,ESE,114,2.0,16.0,51,0.01,,SKC,0.01,VWS V12.07,2013-03-07 22:22:00,
2013-03-07 14:32:00,41.3,22.6,29.91,South,172,7.0,8.0,47,0.00,,SKC,0.01,VWS V12.07,2013-03-07 22:32:00,
2013-03-07 14:42:00,40.9,21.7,29.91,SE,130,7.0,11.0,46,0.00,,SKC,0.01,VWS V12.07,2013-03-07 22:42:00,
2013-03-07 14:52:00,40.6,22.0,29.91,SSE,148,10.0,13.0,47,0.00,,SKC,0.01,VWS V12.07,2013-03-07 22:52:00,
2013-03-07 15:02:00,40.5,20.3,29.90,South,171,4.0,9.0,44,0.00,,SKC,0.01,VWS V12.07,2013-03-07 23:02:00,
2013-03-07 15:12:00,41.7,21.9,29.91,SW,219,4.0,9.0,45,0.00,,SKC,0.01,VWS V12.07,2013-03-07 23:12:00,
2013-03-07 15:22:00,42.0,19.5,29.90,SSE,150,5.0,16.0,40,0.00,,SKC,0.01,VWS V12.07,2013-03-07 23:22:00,
2013-03-07 15:32:00,41.7,19.2,29.90,East,97,0.0,8.0,40,0.00,,SKC,0.01,VWS V12.07,2013-03-07 23:32:00,
2013-03-07 15:42:00,41.7,20.9,29.91,SSE,156,7.0,9.0,43,0.00,,SKC,0.01,VWS V12.07,2013-03-07 23:42:00,
2013-03-07 15:52:00,42.0,20.0,29.90,ESE,123,10.0,14.0,41,0.00,,SKC,0.01,VWS V12.07,2013-03-07 23:52:00,
2013-03-07 16:02:00,41.1,19.2,29.90,SSE,148,2.0,6.0,41,0.00,,SKC,0.01,VWS V12.07,2013-03-08 00:02:00,
2013-03-07 16:12:00,40.9,19.6,29.90,ESE,109,7.0,14.0,42,0.00,,SKC,0.01,VWS V12.07,2013-03-08 00:12:00,
2013-03-07 16:22:00,40.8,19.5,29.89,SE,126,4.0,14.0,42,0.00,,SKC,0.01,VWS V12.07,2013-03-08 00:22:00,
2013-03-07 16:32:00,40.7,19.4,29.90,ESE,123,4.0,11.0,42,0.00,,SKC,0.01,VWS V12.07,2013-03-08 00:32:00,
2013-03-07 16:42:00,40.6,19.3,29.90,ESE,108,6.0,14.0,42,0.00,,SKC,0.01,VWS V12.07,2013-03-08 00:42:00,
2013-03-07 16:52:00,40.4,19.1,29.91,ESE,114,7.0,14.0,42,0.00,,SKC,0.01,VWS V12.07,2013-03-08 00:52:00,
2013-03-07 17:02:00,40.3,20.1,29.90,ESE,118,4.0,6.0,44,0.00,,SKC,0.01,VWS V12.07,2013-03-08 01:02:00,
2013-03-07 17:12:00,40.0,19.9,29.90,SE,129,4.0,8.0,44,0.00,,SKC,0.01,VWS V12.07,2013-03-08 01:12:00,
2013-03-07 17:22:00,39.8,20.2,29.90,SE,129,0.0,8.0,45,0.00,,SKC,0.01,VWS V12.07,2013-03-08 01:22:00,
2013-03-07 17:32:00,39.7,20.1,29.92,SE,129,2.0,4.0,45,0.00,,SKC,0.01,VWS V12.07,2013-03-08 01:32:00,
2013-03-07 17:42:00,39.6,20.5,29.91,SE,129,5.0,7.0,46,0.00,,SKC,0.01,VWS V12.07,2013-03-08 01:42:00,
2013-03-07 17:52:00,39.1,20.6,29.92,SE,129,2.0,7.0,47,0.00,,SKC,0.01,VWS V12.07,2013-03-08 01:52:00,
2013-03-07 18:02:00,38.5,21.5,29.91,SE,129,2.0,5.0,50,0.00,,SKC,0.01,VWS V12.07,2013-03-08 02:02:00,
2013-03-07 18:12:00,38.0,21.5,29.92,SE,129,2.0,6.0,51,0.00,,SKC,0.01,VWS V12.07,2013-03-08 02:12:00,
2013-03-07 18:22:00,37.3,21.8,29.92,WSW,240,2.0,9.0,53,0.00,,SKC,0.01,VWS V12.07,2013-03-08 02:22:00,
2013-03-07 18:32:00,36.3,22.5,29.92,West,264,7.0,8.0,57,0.00,,SKC,0.01,VWS V12.07,2013-03-08 02:32:00,
2013-03-07 18:42:00,36.1,22.4,29.92,West,262,5.0,8.0,57,0.00,,SKC,0.01,VWS V12.07,2013-03-08 02:42:00,
2013-03-07 18:52:00,35.8,22.1,29.93,West,274,4.0,8.0,57,0.00,,SKC,0.01,VWS V12.07,2013-03-08 02:52:00,
2013-03-07 19:02:00,35.6,22.3,29.93,West,275,4.0,5.0,58,0.00,,SKC,0.01,VWS V12.07,2013-03-08 03:02:00,
2013-03-07 19:12:00,35.3,22.0,29.93,West,275,4.0,5.0,58,0.00,,SKC,0.01,VWS V12.07,2013-03-08 03:12:00,
2013-03-07 19:22:00,35.5,22.2,29.93,West,275,3.0,5.0,58,0.00,,SKC,0.01,VWS V12.07,2013-03-08 03:22:00,
2013-03-07 19:32:00,35.7,22.0,29.93,West,275,2.0,5.0,57,0.00,,SKC,0.01,VWS V12.07,2013-03-08 03:32:00,
2013-03-07 19:42:00,35.3,22.4,29.93,NW,322,6.0,9.0,59,0.00,,SKC,0.01,VWS V12.07,2013-03-08 03:42:00,
2013-03-07 19:52:00,35.0,24.4,29.94,NNW,340,4.0,13.0,65,0.00,,SKC,0.01,VWS V12.07,2013-03-08 03:52:00,
2013-03-07 20:02:00,34.7,25.2,29.93,NNW,342,6.0,9.0,68,0.00,,SKC,0.01,VWS V12.07,2013-03-08 04:02:00,
2013-03-07 20:12:00,34.4,25.0,29.94,NNW,335,10.0,10.0,68,0.00,,SKC,0.01,VWS V12.07,2013-03-08 04:12:00,
2013-03-07 20:22:00,34.1,25.0,29.93,NW,324,7.0,12.0,69,0.00,,SKC,0.01,VWS V12.07,2013-03-08 04:22:00,
2013-03-07 20:32:00,34.0,25.3,29.95,NNW,327,10.0,13.0,70,0.00,,SKC,0.01,VWS V12.07,2013-03-08 04:32:00,
2013-03-07 20:42:00,33.7,25.3,29.94,NW,326,7.0,14.0,71,0.00,,SKC,0.01,VWS V12.07,2013-03-08 04:42:00,
2013-03-07 20:52:00,33.6,25.5,29.94,NNW,327,7.0,14.0,72,0.00,,SKC,0.01,VWS V12.07,2013-03-08 04:52:00,
2013-03-07 21:02:00,33.6,25.5,29.94,NNW,330,11.0,17.0,72,0.00,,SKC,0.01,VWS V12.07,2013-03-08 05:02:00,
2013-03-07 21:12:00,33.6,25.9,29.95,NNW,340,6.0,17.0,73,0.00,,SKC,0.01,VWS V12.07,2013-03-08 05:12:00,
2013-03-07 21:22:00,33.3,25.9,29.95,NNW,343,7.0,17.0,74,0.00,,SKC,0.01,VWS V12.07,2013-03-08 05:22:00,
2013-03-07 21:32:00,33.0,26.0,29.95,NNW,332,5.0,7.0,75,0.00,,SKC,0.01,VWS V12.07,2013-03-08 05:32:00,
2013-03-07 21:42:00,32.8,26.1,29.96,NNW,337,4.0,14.0,76,0.00,,SKC,0.01,VWS V12.07,2013-03-08 05:42:00,
2013-03-07 21:53:00,32.6,25.9,29.95,NNW,333,9.0,14.0,76,0.00,,SKC,0.01,VWS V12.07,2013-03-08 05:53:00,
2013-03-07 22:02:00,32.5,26.1,29.96,NW,324,8.0,12.0,77,0.00,,SKC,0.01,VWS V12.07,2013-03-08 06:02:00,
2013-03-07 22:12:00,32.4,26.3,29.95,NW,317,5.0,12.0,78,0.00,,SKC,0.01,VWS V12.07,2013-03-08 06:12:00,
2013-03-07 22:22:00,32.2,26.1,29.94,NW,325,9.0,12.0,78,0.00,,SKC,0.01,VWS V12.07,2013-03-08 06:22:00,
2013-03-07 22:32:00,32.0,25.9,29.95,NW,313,8.0,9.0,78,0.00,,SKC,0.01,VWS V12.07,2013-03-08 06:32:00,
2013-03-07 22:42:00,31.7,25.9,29.95,NNW,328,12.0,13.0,79,0.00,,SKC,0.01,VWS V12.07,2013-03-08 06:42:00,
2013-03-07 22:52:00,31.6,25.9,29.95,NNW,337,9.0,14.0,79,0.00,,SKC,0.01,VWS V12.07,2013-03-08 06:52:00,
2013-03-07 23:03:00,31.4,26.0,29.95,NNW,335,2.0,7.0,80,0.00,,SKC,0.01,VWS V12.07,2013-03-08 07:03:00,
2013-03-07 23:12:00,31.3,25.6,29.94,NNW,335,6.0,7.0,79,0.00,,SKC,0.01,VWS V12.07,2013-03-08 07:12:00,
2013-03-07 23:22:00,31.2,25.5,29.96,NNW,339,0.0,7.0,79,0.00,,SKC,0.01,VWS V12.07,2013-03-08 07:22:00,
2013-03-07 23:32:00,31.3,25.9,29.95,NNW,339,0.0,3.0,80,0.00,,SKC,0.01,VWS V12.07,2013-03-08 07:32:00,
2013-03-07 23:42:00,31.2,25.5,29.96,NNW,339,3.0,7.0,79,0.00,,SKC,0.01,VWS V12.07,2013-03-08 07:42:00,
2013-03-07 23:52:00,31.0,25.6,29.95,NNW,339,2.0,7.0,80,0.00,,SKC,0.01,VWS V12.07,2013-03-08 07:52:00,